• Join FlightAware (Why Join?)
  • Login
  • US Flag 
08:42PM EDT


 

Airport Tracker/Info


-or-


 

Live Flight TrackerFlight Track Log ✈ EIN136 ✈ 24-Apr-2013 ✈ KBOS - EIDW / DUB

Flight Track Log - Related Links

Times and Time Zones

All times are in EDT time to prevent confusion due to time zone crossing. See the EIN136 flight status page for this flight to view local times or setup timezone preferences in your user account.

Time Position Orientation Groundspeed Altitude Reporting Facility
EDT Latitude Longitude Course Direction KTS MPH feet Rate Location/Type
06:28PM 42.3400 -70.7750 74° East 314 361 7,500  Level FlightAware
06:29PM 42.3530 -70.7550 49° Northeast 310 357 8,400 3,600 Climbing FlightAware
06:29PM 42.3730 -70.7400 29° Northeast 293 337 9,300 2,700 Climbing FlightAware
06:30PM 42.4350 -70.7150 17° North 323 372 11,100 2,460 Climbing FlightAware
06:30PM 42.4980 -70.6950 13° North 344 396 12,800 2,640 Climbing FlightAware
06:31PM 42.5670 -70.6740 13° North 345 397 14,900 2,700 Climbing FlightAware
06:32PM 42.6330 -70.6540 13° North 364 419 16,700 2,580 Climbing FlightAware
06:32PM 42.7000 -70.6350 12° North 374 430 18,400 2,280 Climbing FlightAware
06:33PM 42.7760 -70.5980 20° North 398 458 20,000 2,160 Climbing FlightAware
06:34PM 42.8390 -70.5420 33° Northeast 411 473 21,500 2,100 Climbing FlightAware
06:34PM 42.8940 -70.4670 45° Northeast 425 489 22,800 2,160 Climbing FlightAware
06:35PM 42.9520 -70.3770 49° Northeast 419 482 24,600 2,220 Climbing FlightAware
06:36PM 43.0030 -70.2960 49° Northeast 422 486 26,000 1,740 Climbing FlightAware
06:37PM 43.0630 -70.2030 49° Northeast 439 505 27,100 1,500 Climbing FlightAware
06:37PM 43.1160 -70.1190 49° Northeast 445 512 28,200 1,680 Climbing FlightAware
06:38PM 43.1730 -70.0290 49° Northeast 448 516 29,400 1,560 Climbing FlightAware
06:39PM 43.2290 -69.9410 49° Northeast 453 521 30,300 1,320 Climbing FlightAware
06:39PM 43.2860 -69.8500 49° Northeast 455 524 31,300 1,260 Climbing FlightAware
06:40PM 43.3430 -69.7590 49° Northeast 465 535 32,100 1,260 Climbing FlightAware
06:41PM 43.4060 -69.6580 49° Northeast 466 536 33,100 1,260 Climbing FlightAware
06:41PM 43.4630 -69.5670 49° Northeast 468 539 33,900 1,200 Climbing FlightAware
06:42PM 43.5200 -69.4760 49° Northeast 468 539 34,700 1,080 Climbing FlightAware
06:43PM 43.5850 -69.3710 49° Northeast 468 539 35,500 1,020 Climbing FlightAware
06:44PM 43.6400 -69.2810 50° Northeast 468 539 36,200 900 Climbing FlightAware
06:44PM 43.7040 -69.1780 49° Northeast 470 541 36,800 540 Climbing FlightAware
06:45PM 43.7580 -69.0890 50° Northeast 470 541 37,000 120 Climbing FlightAware
06:46PM 43.8240 -68.9820 49° Northeast 476 548 37,000 420 Level FlightAware
06:46PM 43.8660 -68.9110 51° Northeast 473 544 37,600 1,020 Climbing FlightAware
06:47PM 43.9350 -68.7990 49° Northeast 464 534 38,400 900 Climbing FlightAware
06:48PM 43.9880 -68.7110 50° Northeast 460 529 38,900 240 Climbing FlightAware
06:48PM 44.0430 -68.6200 50° Northeast 39,000 60 Climbing FlightAware
06:49PM 44.1050 -68.5160 50° Northeast 455 524 39,000  Level FlightAware
06:50PM 44.1660 -68.4150 50° Northeast 458 527 39,000  Level FlightAware
06:51PM 44.2200 -68.3240 50° Northeast 458 527 39,000  Level FlightAware
06:51PM 44.2800 -68.2230 50° Northeast 458 527 39,000  Level FlightAware
06:52PM 44.3350 -68.1310 50° Northeast 454 522 39,000  Level FlightAware
06:53PM 44.3880 -68.0410 50° Northeast 458 527 39,000  Level FlightAware
06:53PM 44.4500 -67.9350 51° Northeast 460 529 39,000  Level FlightAware
06:54PM 44.5050 -67.8430 50° Northeast 460 529 39,000  Level FlightAware
06:55PM 44.5590 -67.7510 51° Northeast 461 531 39,000  Level FlightAware
06:55PM 44.6200 -67.6460 51° Northeast 464 534 39,000  Level FlightAware
06:56PM 44.6750 -67.5500 51° Northeast 465 535 39,000  Level FlightAware
06:57PM 44.7380 -67.4420 51° Northeast 466 536 39,000  Level FlightAware
06:58PM 44.7920 -67.3490 51° Northeast 466 536 39,000  Level FlightAware
06:58PM 44.8540 -67.2400 51° Northeast 465 535 39,000  Level FlightAware
06:59PM 44.9090 -67.1440 51° Northeast 465 535 39,000  Level FlightAware
07:00PM 44.9640 -67.0540 49° Northeast 454 522 39,000  Level FlightAware
07:00PM 45.0270 -66.9500 49° Northeast 451 519 39,000  Level FlightAware
07:01PM 45.0810 -66.8610 49° Northeast 453 521 39,000  Level FlightAware
07:02PM 45.1430 -66.7560 50° Northeast 456 525 39,000  Level FlightAware
07:02PM 45.1980 -66.6650 49° Northeast 459 528 39,000  Level FlightAware
07:03PM 45.2530 -66.5730 50° Northeast 459 528 39,000  Level FlightAware
07:04PM 45.3150 -66.4670 50° Northeast 461 531 39,000  Level FlightAware
07:05PM 45.3700 -66.3740 50° Northeast 464 534 39,000  Level FlightAware
07:05PM 45.4270 -66.2780 50° Northeast 472 543 39,000  Level FlightAware
07:06PM 45.4890 -66.1730 50° Northeast 473 544 39,000  Level FlightAware
07:07PM 45.5460 -66.0740 51° Northeast 467 537 39,000  Level FlightAware
07:07PM 45.6080 -65.9680 50° Northeast 462 532 39,000  Level FlightAware
07:08PM 45.6630 -65.8740 50° Northeast 462 532 39,000  Level FlightAware
07:09PM 45.7260 -65.7650 50° Northeast 463 533 39,000  Level FlightAware
07:09PM 45.7800 -65.6710 51° Northeast 464 534 39,000  Level FlightAware
07:10PM 45.8360 -65.5730 51° Northeast 465 535 39,000  Level FlightAware
07:11PM 45.8980 -65.4660 50° Northeast 474 545 39,000  Level FlightAware
07:11PM 45.9450 -65.3820 51° Northeast 478 550 39,000  Level FlightAware
07:12PM 46.0060 -65.2750 51° Northeast 479 551 39,000  Level FlightAware
07:13PM 46.0630 -65.1760 50° Northeast 481 554 39,000  Level FlightAware
07:14PM 46.1440 -65.0310 51° Northeast 482 555 39,000  Level FlightAware
07:15PM 46.1920 -64.9460 51° Northeast 482 555 39,000  Level FlightAware
07:15PM 46.2390 -64.8610 51° Northeast 482 555 39,000  Level FlightAware
07:16PM 46.2990 -64.7540 51° Northeast 482 555 39,000  Level FlightAware
07:17PM 46.3470 -64.6690 51° Northeast 482 555 39,000  Level FlightAware
07:17PM 46.3940 -64.5840 51° Northeast 482 555 39,000  Level FlightAware
07:18PM 46.4420 -64.4980 51° Northeast 482 555 39,000  Level FlightAware
07:19PM 46.4900 -64.4130 51° Northeast 482 555 39,000  Level FlightAware
07:20PM 46.5490 -64.3060 51° Northeast 482 555 39,000  Level FlightAware
07:20PM 46.5970 -64.2200 51° Northeast 482 555 39,000  Level FlightAware
07:21PM 46.6450 -64.1340 51° Northeast 482 555 39,000  Level FlightAware
07:22PM 46.6920 -64.0480 51° Northeast 482 555 39,000  Level FlightAware
07:22PM 46.7520 -63.9410 51° Northeast 482 555 39,000  Level FlightAware
07:23PM 46.8000 -63.8550 51° Northeast 482 555 39,000  Level FlightAware
07:24PM 46.9500 -63.5333 51° Northeast 480 552 39,000  Level Moncton Center
07:25PM 47.0333 -63.3833 51° Northeast 480 552 39,000  Level Moncton Center
07:26PM 47.1000 -63.2333 57° Northeast 480 552 39,000  Level Moncton Center
07:27PM 47.1833 -63.0667 54° Northeast 480 552 39,000  Level Moncton Center
07:28PM 47.2667 -62.9167 51° Northeast 480 552 39,000  Level Moncton Center
07:29PM 47.3500 -62.7333 56° Northeast 490 564 39,000  Level Moncton Center
07:30PM 47.4333 -62.5833 51° Northeast 490 564 39,000  Level Moncton Center
07:31PM 47.5167 -62.4333 51° Northeast 490 564 39,000  Level Moncton Center
07:32PM 47.6000 -62.2667 53° Northeast 500 575 39,000  Level Moncton Center
07:33PM 47.6833 -62.1167 50° Northeast 500 575 39,000  Level Moncton Center
07:34PM 47.7667 -61.9333 56° Northeast 500 575 39,000  Level Moncton Center
07:35PM 47.8500 -61.7833 50° Northeast 500 575 39,000  Level Moncton Center
07:36PM 47.9333 -61.6000 56° Northeast 500 575 39,000  Level Moncton Center
07:37PM 48.0167 -61.4500 50° Northeast 500 575 39,000  Level Moncton Center
07:38PM 48.1167 -61.2667 51° Northeast 500 575 39,000  Level Moncton Center
07:39PM 48.1833 -61.1000 59° Northeast 500 575 39,000  Level Moncton Center
07:40PM 48.2667 -60.9333 53° Northeast 500 575 39,000  Level Moncton Center
07:41PM 48.3500 -60.7500 56° Northeast 500 575 39,000  Level Moncton Center
07:42PM 48.4167 -60.5833 59° Northeast 510 587 39,000  Level Moncton Center
07:43PM 48.5167 -60.4000 50° Northeast 510 587 39,000  Level Moncton Center
07:44PM 48.6000 -60.2500 50° Northeast 510 587 39,000  Level Moncton Center
07:45PM 48.6667 -60.0667 61° Northeast 510 587 39,000  Level Moncton Center
07:46PM 48.7667 -59.8667 53° Northeast 520 598 39,000  Level Moncton Center
07:47PM 48.8500 -59.7167 50° Northeast 520 598 39,000  Level Moncton Center
07:48PM 48.9167 -59.5333 61° Northeast 520 598 39,000  Level Moncton Center
07:49PM 49.0167 -59.3333 53° Northeast 520 598 39,000  Level Moncton Center
07:50PM 49.0833 -59.1833 56° Northeast 510 587 39,000  Level Moncton Center
07:51PM 49.1667 -59.0000 55° Northeast 510 587 39,000  Level Moncton Center
07:52PM 49.2333 -58.8000 63° Northeast 500 575 39,000  Level Moncton Center
07:53PM 49.3333 -58.6333 47° Northeast 490 564 39,000  Level Moncton Center
07:54PM 49.4167 -58.4333 57° Northeast 490 564 39,000  Level Gander Center
07:55PM 49.4833 -58.2833 56° Northeast 490 564 39,000  Level Moncton Center
07:56PM 49.5500 -58.1167 58° Northeast 500 575 39,000  Level Moncton Center
07:56PM 49.5833 -58.0500 52° Northeast 500 575 39,000 360 Level Gander Center
07:57PM 49.6333 -57.9333 56° Northeast 500 575 39,400 540 Climbing Moncton Center
07:58PM 49.6833 -57.7333 69° East 490 564 40,000 420 Climbing Moncton Center
07:58PM 49.7167 -57.6833 44° Northeast 490 564 40,000  Level Gander Center
07:59PM 49.7667 -57.5500 60° Northeast 500 575 40,000  Level Moncton Center
08:00PM 49.8333 -57.3167 66° East 500 575 40,000  Level Gander Center
08:01PM 49.9000 -57.1333 61° Northeast 500 575 40,000  Level Gander Center
08:02PM 49.9667 -56.9333 63° Northeast 500 575 40,000  Level Gander Center
08:03PM 50.0333 -56.7500 60° Northeast 500 575 40,000  Level Gander Center
08:04PM 50.0833 -56.5667 67° East 500 575 40,000  Level Gander Center
08:05PM 50.1333 -56.4000 65° Northeast 510 587 40,000  Level Moncton Center
08:06PM 50.2167 -56.2000 57° Northeast 500 575 40,000  Level Moncton Center
08:06PM 50.2167 -56.1333 90° East 510 587 40,000  Level Gander Center
08:07PM 50.2833 -55.9333 62° Northeast 500 575 40,000  Level Gander Center
08:08PM 50.3333 -55.8167 56° Northeast 510 587 40,000  Level Moncton Center
08:09PM 50.4000 -55.6167 62° Northeast 510 587 40,000  Level Moncton Center
08:10PM 50.4500 -55.4167 68° East 500 575 40,000  Level Moncton Center
08:11PM 50.5000 -55.2167 68° East 500 575 40,000  Level Moncton Center
08:12PM 50.5833 -55.0167 57° Northeast 490 564 40,000  Level Moncton Center
08:12PM 50.6000 -54.9833 52° Northeast 490 564 40,000  Level Gander Center
08:18PM 50.9330 -53.9290 52° Northeast 481 554 40,000  Level FlightAware
08:18PM 50.9720 -53.7950 65° Northeast 481 554 40,000  Level FlightAware
08:19PM 51.0160 -53.6420 65° Northeast 476 548 40,000  Level FlightAware
08:20PM 51.0550 -53.5110 65° Northeast 475 547 40,000  Level FlightAware
08:20PM 51.0920 -53.3820 65° Northeast 474 545 40,000  Level FlightAware
08:21PM 51.1310 -53.2480 65° Northeast 477 549 40,000  Level FlightAware
08:22PM 51.1630 -53.1390 65° Northeast 477 549 40,000  Level FlightAware
08:22PM 51.1950 -53.0310 65° Northeast 477 549 40,000  Level FlightAware
08:23PM 51.2260 -52.9220 66° East 477 549 40,000  Level FlightAware
08:24PM 51.2580 -52.8140 65° Northeast 477 549 40,000  Level FlightAware
08:24PM 51.2900 -52.7050 65° Northeast 477 549 40,000  Level FlightAware
08:25PM 51.3290 -52.5690 65° Northeast 477 549 40,000  Level FlightAware
08:26PM 51.3610 -52.4600 65° Northeast 477 549 40,000  Level FlightAware
08:27PM 51.3930 -52.3510 65° Northeast 477 549 40,000  Level FlightAware
08:27PM 51.4240 -52.2420 65° Northeast 477 549 40,000  Level FlightAware
08:28PM 51.4960 -51.9360 69° East 40,000  Level FlightAware
08:29PM 51.5110 -51.7570 82° East 486 559 40,000  Level FlightAware
08:29PM 51.5190 -51.6350 84° East 486 559 40,000  Level FlightAware
08:30PM 51.5270 -51.5120 84° East 486 559 40,000  Level FlightAware
08:31PM 51.5350 -51.3900 84° East 486 559 40,000  Level FlightAware
08:31PM 51.5430 -51.2680 84° East 486 559 40,000  Level FlightAware
08:32PM 51.5530 -51.1150 84° East 486 559 40,000  Level FlightAware
08:33PM 51.5610 -50.9930 84° East 486 559 40,000  Level FlightAware
08:34PM 51.5690 -50.8700 84° East 486 559 40,000  Level FlightAware
08:34PM 51.5770 -50.7480 84° East 486 559 40,000  Level FlightAware
08:35PM 51.5870 -50.5950 84° East 486 559 40,000  Level FlightAware
08:36PM 51.5950 -50.4730 84° East 486 559 40,000  Level FlightAware
08:36PM 51.6030 -50.3500 84° East 486 559 40,000  Level FlightAware
08:37PM 51.6110 -50.2280 84° East 486 559 40,000  Level FlightAware
08:38PM 51.6210 -50.0750 84° East 486 559 40,000  Level FlightAware
08:46PM 51.9697 -48.5901 69° East  Level Estimated
08:47PM 52.0144 -48.3918 70° East  Level Estimated
08:48PM 52.0589 -48.1930 70° East  Level Estimated
08:49PM 52.1030 -47.9938 70° East  Level Estimated
08:50PM 52.1467 -47.7942 70° East  Level Estimated
08:51PM 52.1902 -47.5943 70° East  Level Estimated
08:52PM 52.2332 -47.3939 71° East  Level Estimated
08:53PM 52.2760 -47.1932 71° East  Level Estimated
08:54PM 52.3184 -46.9921 71° East  Level Estimated
08:55PM 52.3605 -46.7906 71° East  Level Estimated
08:56PM 52.4022 -46.5887 71° East  Level Estimated
08:57PM 52.4436 -46.3864 71° East  Level Estimated
08:58PM 52.4846 -46.1838 72° East  Level Estimated
08:59PM 52.5253 -45.9807 72° East  Level Estimated
09:00PM 52.5656 -45.7773 72° East  Level Estimated
09:01PM 52.6056 -45.5736 72° East  Level Estimated
09:02PM 52.6452 -45.3694 72° East  Level Estimated
09:03PM 52.6845 -45.1649 72° East  Level Estimated
09:04PM 52.7235 -44.9600 73° East  Level Estimated
09:05PM 52.7621 -44.7548 73° East  Level Estimated
09:06PM 52.8003 -44.5492 73° East  Level Estimated
09:07PM 52.8381 -44.3432 73° East  Level Estimated
09:08PM 52.8756 -44.1369 73° East  Level Estimated
09:09PM 52.9128 -43.9302 73° East  Level Estimated
09:10PM 52.9496 -43.7232 73° East  Level Estimated
09:11PM 52.9860 -43.5158 74° East  Level Estimated
09:12PM 53.0221 -43.3081 74° East  Level Estimated
09:13PM 53.0578 -43.1000 74° East  Level Estimated
09:14PM 53.0932 -42.8916 74° East  Level Estimated
09:15PM 53.1281 -42.6828 74° East  Level Estimated
09:16PM 53.1628 -42.4737 74° East  Level Estimated
09:17PM 53.1970 -42.2643 75° East  Level Estimated
09:18PM 53.2309 -42.0545 75° East  Level Estimated
09:19PM 53.2644 -41.8444 75° East  Level Estimated
09:20PM 53.2975 -41.6340 75° East  Level Estimated
09:21PM 53.3303 -41.4232 75° East  Level Estimated
09:22PM 53.3627 -41.2122 75° East  Level Estimated
09:23PM 53.3947 -41.0008 76° East  Level Estimated
09:24PM 53.4264 -40.7891 76° East  Level Estimated
09:25PM 53.4577 -40.5771 76° East  Level Estimated
09:26PM 53.4886 -40.3647 76° East  Level Estimated
09:27PM 53.5191 -40.1521 76° East  Level Estimated
09:28PM 53.5492 -39.9391 77° East  Level Estimated
09:29PM 53.5790 -39.7259 77° East  Level Estimated
09:30PM 53.6084 -39.5123 77° East  Level Estimated
09:31PM 53.6374 -39.2985 77° East  Level Estimated
09:32PM 53.6660 -39.0844 77° East  Level Estimated
09:33PM 53.6943 -38.8699 77° East  Level Estimated
09:34PM 53.7221 -38.6552 78° East  Level Estimated
09:35PM 53.7496 -38.4403 78° East  Level Estimated
09:36PM 53.7767 -38.2250 78° East  Level Estimated
09:37PM 53.8034 -38.0094 78° East  Level Estimated
09:38PM 53.8297 -37.7936 78° East  Level Estimated
09:39PM 53.8557 -37.5775 78° East  Level Estimated
09:40PM 53.8812 -37.3612 79° East  Level Estimated
09:41PM 53.9064 -37.1445 79° East  Level Estimated
09:42PM 53.9311 -36.9277 79° East  Level Estimated
09:43PM 53.9555 -36.7105 79° East  Level Estimated
09:44PM 53.9795 -36.4931 79° East  Level Estimated
09:45PM 54.0031 -36.2755 79° East  Level Estimated
09:46PM 54.0262 -36.0576 80° East  Level Estimated
09:47PM 54.0490 -35.8395 80° East  Level Estimated
09:48PM 54.0714 -35.6212 80° East  Level Estimated
09:49PM 54.0935 -35.4026 80° East  Level Estimated
09:50PM 54.1151 -35.1838 80° East  Level Estimated
09:51PM 54.1363 -34.9647 81° East  Level Estimated
09:52PM 54.1571 -34.7454 81° East  Level Estimated
09:53PM 54.1775 -34.5259 81° East  Level Estimated
09:54PM 54.1975 -34.3062 81° East  Level Estimated
09:55PM 54.2172 -34.0863 81° East  Level Estimated
09:56PM 54.2364 -33.8662 81° East  Level Estimated
09:57PM 54.2552 -33.6459 82° East  Level Estimated
09:58PM 54.2736 -33.4254 82° East  Level Estimated
09:59PM 54.2916 -33.2047 82° East  Level Estimated
10:00PM 54.3092 -32.9837 82° East  Level Estimated
10:01PM 54.3264 -32.7626 82° East  Level Estimated
10:02PM 54.3432 -32.5414 82° East  Level Estimated
10:03PM 54.3596 -32.3199 83° East  Level Estimated
10:04PM 54.3756 -32.0983 83° East  Level Estimated
10:05PM 54.3912 -31.8765 83° East  Level Estimated
10:06PM 54.4064 -31.6545 83° East  Level Estimated
10:07PM 54.4211 -31.4324 83° East  Level Estimated
10:08PM 54.4355 -31.2101 84° East  Level Estimated
10:09PM 54.4495 -30.9876 84° East  Level Estimated
10:10PM 54.4630 -30.7651 84° East  Level Estimated
10:11PM 54.4761 -30.5423 84° East  Level Estimated
10:12PM 54.4888 -30.3194 84° East  Level Estimated
10:13PM 54.5011 -30.0964 84° East  Level Estimated
10:14PM 54.5131 -29.8733 85° East  Level Estimated
10:15PM 54.5245 -29.6500 85° East  Level Estimated
10:16PM 54.5356 -29.4266 85° East  Level Estimated
10:17PM 54.5463 -29.2031 85° East  Level Estimated
10:18PM 54.5565 -28.9795 85° East  Level Estimated
10:19PM 54.5664 -28.7557 86° East  Level Estimated
10:20PM 54.5758 -28.5319 86° East  Level Estimated
10:21PM 54.5848 -28.3079 86° East  Level Estimated
10:22PM 54.5934 -28.0839 86° East  Level Estimated
10:23PM 54.6016 -27.8598 86° East  Level Estimated
10:24PM 54.6094 -27.6355 86° East  Level Estimated
10:25PM 54.6168 -27.4112 87° East  Level Estimated
10:26PM 54.6237 -27.1868 87° East  Level Estimated
10:27PM 54.6302 -26.9624 87° East  Level Estimated
10:28PM 54.6364 -26.7378 87° East  Level Estimated
10:29PM 54.6421 -26.5132 87° East  Level Estimated
10:30PM 54.6474 -26.2886 88° East  Level Estimated
10:31PM 54.6522 -26.0639 88° East  Level Estimated
10:32PM 54.6567 -25.8391 88° East  Level Estimated
10:33PM 54.6607 -25.6143 88° East  Level Estimated
10:34PM 54.6643 -25.3895 88° East  Level Estimated
10:35PM 54.6675 -25.1646 88° East  Level Estimated
10:36PM 54.6703 -24.9396 89° East  Level Estimated
10:37PM 54.6727 -24.7147 89° East  Level Estimated
10:38PM 54.6747 -24.4897 89° East  Level Estimated
10:39PM 54.6762 -24.2647 89° East  Level Estimated
10:40PM 54.6773 -24.0397 89° East  Level Estimated
10:41PM 54.6780 -23.8147 90° East  Level Estimated
10:42PM 54.6783 -23.5896 90° East  Level Estimated
10:43PM 54.6782 -23.3646 90° East  Level Estimated
10:44PM 54.6777 -23.1396 90° East  Level Estimated
10:45PM 54.6767 -22.9146 90° East  Level Estimated
10:46PM 54.6753 -22.6896 91° East  Level Estimated
10:47PM 54.6735 -22.4646 91° East  Level Estimated
10:48PM 54.6713 -22.2396 91° East  Level Estimated
10:49PM 54.6687 -22.0147 91° East  Level Estimated
10:50PM 54.6656 -21.7898 91° East  Level Estimated
10:51PM 54.6622 -21.5649 91° East  Level Estimated
10:52PM 54.6583 -21.3401 92° East  Level Estimated
10:53PM 54.6540 -21.1153 92° East  Level Estimated
10:54PM 54.6493 -20.8906 92° East  Level Estimated
10:55PM 54.6441 -20.6659 92° East  Level Estimated
10:56PM 54.6386 -20.4413 92° East  Level Estimated
10:57PM 54.6326 -20.2167 93° East  Level Estimated
10:58PM 54.6263 -19.9922 93° East  Level Estimated
10:59PM 54.6195 -19.7678 93° East  Level Estimated
11:00PM 54.6123 -19.5435 93° East  Level Estimated
11:01PM 54.6047 -19.3192 93° East  Level Estimated
11:02PM 54.5966 -19.0950 93° East  Level Estimated
11:03PM 54.5882 -18.8710 94° East  Level Estimated
11:04PM 54.5793 -18.6470 94° East  Level Estimated
11:05PM 54.5701 -18.4231 94° East  Level Estimated
11:06PM 54.5604 -18.1993 94° East  Level Estimated
11:07PM 54.5503 -17.9756 94° East  Level Estimated
11:08PM 54.5398 -17.7521 95° East  Level Estimated
11:09PM 54.5288 -17.5286 95° East  Level Estimated
11:10PM 54.5175 -17.3053 95° East  Level Estimated
11:11PM 54.5058 -17.0821 95° East  Level Estimated
11:11PM 54.0000 -14.3660 95° East 525 604 40,000  Level FlightAware
11:11PM 54.0000 -14.1980 90° East 526 605 40,000  Level FlightAware
11:12PM 53.9990 -14.0140 90° East 524 603 40,000  Level FlightAware
11:13PM 53.9990 -13.8500 90° East 523 602 40,000  Level FlightAware
11:13PM 53.9980 -13.6870 91° East 525 604 40,000  Level FlightAware
11:14PM 53.9960 -13.5230 91° East 527 606 40,000  Level FlightAware
11:15PM 53.9940 -13.3350 91° East 527 606 40,000  Level FlightAware
11:15PM 53.9920 -13.1670 91° East 527 606 40,000  Level FlightAware
11:16PM 53.9900 -12.9830 91° East 528 608 40,000  Level FlightAware
11:17PM 53.9880 -12.8180 91° East 529 609 40,000  Level FlightAware
11:18PM 53.9860 -12.6570 91° East 531 611 40,000  Level FlightAware
11:18PM 53.9820 -12.4640 92° East 531 611 40,000  Level FlightAware
11:19PM 53.9790 -12.3000 92° East 529 609 40,000  Level FlightAware
11:20PM 53.9760 -12.1130 91° East 529 609 40,000  Level FlightAware
11:20PM 53.9720 -11.9480 92° East 529 609 40,000  Level FlightAware
11:21PM 53.9680 -11.7790 92° East 528 608 40,000  Level FlightAware
11:22PM 53.9640 -11.5960 92° East 528 608 40,000  Level FlightAware
11:22PM 53.9600 -11.4270 92° East 531 611 40,000  Level FlightAware
11:23PM 53.9550 -11.2640 93° East 529 609 40,000  Level FlightAware
11:24PM 53.9500 -11.0790 93° East 529 609 40,000  Level FlightAware
11:25PM 53.9450 -10.9130 93° East 531 611 40,000 -360 Level FlightAware
11:25PM 53.9390 -10.7260 93° East 529 609 39,500 -900 Descending FlightAware
11:26PM 53.9340 -10.5600 93° East 522 601 38,800 -1,320 Descending FlightAware
11:27PM 53.9290 -10.3980 93° East 526 605 37,800 -1,740 Descending FlightAware
11:27PM 53.9220 -10.2140 94° East 523 602 36,400 -2,220 Descending FlightAware
11:28PM 53.9160 -10.0520 94° East 529 609 34,700 -2,580 Descending FlightAware
11:29PM 53.9090 -9.8610 93° East 531 611 32,800 -2,340 Descending FlightAware
11:29PM 53.9020 -9.6980 94° East 525 604 31,400 -2,100 Descending FlightAware
11:30PM 53.8950 -9.5170 94° East 511 588 29,900 -1,980 Descending FlightAware
11:31PM 53.8880 -9.3610 94° East 500 575 28,600 -1,980 Descending FlightAware
11:32PM 53.8810 -9.2060 94° East 490 564 27,300 -1,980 Descending FlightAware
11:32PM 53.8740 -9.0510 94° East 479 551 26,000 -3,600 Descending FlightAware
11:33PM 53.8698 -8.9461 94° East 412 474 23,500 -4,440 Descending FlightAware UK
11:33PM 53.8665 -8.8791 95° East 408 470 22,900 2,820 Descending FlightAware UK
11:33PM 53.8660 -8.8850 95° East 472 543 24,500 -2,040 Climbing FlightAware
11:33PM 53.8631 -8.8126 95° East 404 465 22,300 -5,100 Descending FlightAware UK
11:34PM 53.8602 -8.7469 94° East 400 460 21,700 2,160 Descending FlightAware UK
11:34PM 53.8600 -8.7420 94° East 466 536 23,200 -2,280 Climbing FlightAware
11:34PM 53.8554 -8.6596 94° East 400 460 20,800 -6,000 Descending FlightAware UK
11:34PM 53.8430 -8.5997 109° East 410 472 19,700 420 Descending FlightAware UK
11:34PM 53.8400 -8.5820 109° East 455 524 21,000 -2,820 Climbing FlightAware
11:35PM 53.8230 -8.4988 109° East 414 476 18,300 -5,100 Descending FlightAware UK
11:35PM 53.8109 -8.4369 108° East 414 476 17,800 3,600 Descending FlightAware UK
11:35PM 53.8130 -8.4480 108° East 451 519 19,500 -2,040 Climbing FlightAware
11:35PM 53.7993 -8.3770 108° East 406 467 17,200 -5,340 Descending FlightAware UK
11:36PM 53.7878 -8.3175 108° East 402 463 16,500 1,980 Descending FlightAware UK
11:36PM 53.7870 -8.3140 108° East 438 504 18,000 -2,520 Climbing FlightAware
11:36PM 53.7720 -8.2384 108° East 400 460 15,500 -4,860 Descending FlightAware UK
11:36PM 53.7606 -8.1805 108° East 394 453 15,100 1,980 Descending FlightAware UK
11:36PM 53.7580 -8.1680 108° East 425 489 16,400 -2,040 Climbing FlightAware
11:37PM 53.7460 -8.1071 108° East 396 456 14,300 -4,560 Descending FlightAware UK
11:37PM 53.7350 -8.0520 109° East 382 440 13,900 2,160 Descending FlightAware UK
11:37PM 53.7330 -8.0420 109° East 410 472 15,200 -2,760 Climbing FlightAware
11:37PM 53.7200 -7.9791 109° East 380 437 12,800 -4,980 Descending FlightAware UK
11:38PM 53.7087 -7.9246 109° East 374 430 12,300 1,920 Descending FlightAware UK
11:38PM 53.7060 -7.9070 109° East 403 464 13,700 -1,620 Climbing FlightAware
11:38PM 53.6904 -7.8350 109° East 1 1 11,500 -4,620 Descending FlightAware UK
11:39PM 53.6789 -7.7810 110° East 1 1 10,800 3,300 Descending FlightAware UK
11:39PM 53.6840 -7.8000 110° East 394 453 12,600 -2,040 Climbing FlightAware
11:39PM 53.6695 -7.7317 110° East 1 1 10,200 -4,800 Descending FlightAware UK
11:39PM 53.6600 -7.6823 108° East 1 1 9,900 3,000 Descending FlightAware UK
11:39PM 53.6590 -7.6780 108° East 379 436 11,400 -1,500 Climbing FlightAware
11:40PM 53.6452 -7.6128 108° East 1 1 9,300 -4,500 Descending FlightAware UK
11:40PM 53.6354 -7.5647 109° East 1 1 8,700 1,500 Descending FlightAware UK
11:40PM 53.6340 -7.5530 109° East 370 426 10,000 -2,520 Climbing FlightAware
11:40PM 53.6221 -7.4995 109° East 1 1 7,700 -2,220 Descending FlightAware UK
11:40PM 53.6160 -7.4690 109° East 370 426 8,900 -1,680 Climbing FlightAware
11:41PM 53.6118 -7.4505 109° East 1 1 7,200 -8,400 Descending FlightAware UK
11:41PM 53.6047 -7.4169 109° East 1 1 6,800 3,000 Descending FlightAware UK
11:41PM 53.6030 -7.4040 109° East 361 415 8,300 -1,020 Climbing FlightAware
11:41PM 53.5882 -7.3373 109° East 1 1 6,300 -1,200 Descending FlightAware UK
11:41PM 53.5860 -7.3250 109° East 348 400 7,700 -1,200 Climbing FlightAware
11:42PM 53.5730 -7.2629 109° East 1 1 5,700 -960 Descending FlightAware UK
11:42PM 53.5730 -7.2620 109° East 335 386 7,300 -540 Climbing FlightAware
11:42PM 53.5608 -7.2045 109° East 1 1 5,500 -600 Descending FlightAware UK
11:42PM 53.5580 -7.1900 109° East 313 360 7,000 -600 Climbing FlightAware
11:43PM 53.5463 -7.1348 109° East 1 1 5,200 -600 Descending FlightAware UK
11:43PM 53.5440 -7.1230 109° East 297 342 6,700 -840 Climbing FlightAware
11:43PM 53.5331 -7.0719 109° East 1 1 4,800 -1,200 Descending FlightAware UK
11:43PM 53.5330 -7.0680 109° East 291 335 6,200 -1,260 Climbing FlightAware
11:44PM 53.5226 -7.0226 109° East 1 1 4,300 -1,020 Descending FlightAware UK
11:44PM 53.5200 -7.0050 109° East 286 329 5,700 2,400 Climbing FlightAware
11:44PM 53.5130 -6.9750 109° East 285 328 5,400 -6,720 Descending FlightAware
11:44PM 53.5093 -6.9599 109° East 1 1 3,700 -7,620 Descending FlightAware UK
11:44PM 53.5042 -6.9354 109° East 1 1 3,500 3,240 Descending FlightAware UK
11:44PM 53.5020 -6.9220 109° East 285 328 4,900 2,640 Climbing FlightAware
11:45PM 53.4950 -6.8910 109° East 282 325 4,600 -6,000 Descending FlightAware
11:45PM 53.4906 -6.8715 109° East 1 1 2,900 -7,080 Descending FlightAware UK
11:45PM 53.4854 -6.8471 109° East 1 1 2,600 3,600 Descending FlightAware UK
11:45PM 53.4860 -6.8460 109° East 283 326 4,100 -1,260 Climbing FlightAware
11:45PM 53.4749 -6.7985 109° East 1 1 2,100 -4,080 Descending FlightAware UK
11:46PM 53.4668 -6.7607 110° East 1 1 1,800 2,220 Descending FlightAware UK
11:46PM 53.4630 -6.7460 110° East 272 313 3,200 -840 Climbing FlightAware
11:46PM 53.4526 -6.7001 110° East 1 1 1,400 -600 Descending FlightAware UK
11:46PM 53.4480 -6.6880 110° East 258 297 2,900 2,280 Climbing FlightAware
11:47PM 53.4410 -6.6400 104° East 247 284 2,800 -120 Descending FlightAware
11:47PM 53.4380 -6.5850 95° East 221 254 2,800  Level FlightAware
11:48PM 53.4360 -6.5470 95° East 199 229 2,800 -2,160 Level FlightAware
11:48PM 53.4341 -6.5173 95° East 1 1 1,300 -2,760 Descending FlightAware UK
11:48PM 53.4326 -6.4918 96° East 1 1 1,200 2,100 Descending FlightAware UK
11:48PM 53.4330 -6.4780 96° East 194 223 2,300 1,020 Climbing FlightAware
11:49PM 53.4310 -6.4400 95° East 192 221 1,800 -1,080 Descending FlightAware
11:50PM 53.4270 -6.3790 96° East 162 186 1,100 -900 Descending FlightAware
11:50PM 53.4250 -6.3440 95° East 138 159 700 -480 Descending FlightAware
11:51PM 53.4240 -6.3040 92° East 127 146 500 -300 Descending FlightAware
11:54PM 53.4167 -6.2667 102° East  Level FlightAware Approximate
11:55PM 53.4213 -6.2701 102° East  Level Estimated
11:56PM 53.4167 -6.2667 102° East  Level FlightAware Approximate
11:57PM 53.4213 -6.2701 102° East  Level Estimated
11:58PM 53.4167 -6.2667 102° East  Level FlightAware Approximate
11:59PM 53.4213 -6.2701 102° East  Level Estimated
12:00AM 53.4167 -6.2667 102° East  Level FlightAware Approximate
12:01AM 53.4213 -6.2701 102° East  Level Estimated